Carrollton, Louisiana
Current Conditions -  °F | °C
As of 8:15 PM on Saturday 22 Nov 2014 (Local Time) from KVSH Reporting Station
Broken Clouds Broken Clouds  
Wind Chill: 63°   Ceiling: 600
Heat Index: 63°   Visibility: 10mi
Dew Point: 55°   Wind: 6mph
Humidity: 77%   Direction: 70°ENE
Pressure: 29.98"   Gusts: NA
Location:  29.9472°N, 90.1244°W
Report Text: KVSH 230215Z AUTO 07005KT 10SM BKN006 BKN014 17/13 A2998 RMK AO1
Loading
Personal Weather Stations






























Interactive Weather Map New forecast layout! Learn more

10-Day Weather Forecast

Advertisements
Track Severe Weather on mobile